WetterOnline ( https://www.wetteronline.ch )

Wetter aktuell Potsdam

Aktuelles Wetter: Potsdam (100m)

6-stündlich | Neueste Meldungen
Ortszeit Temperatur Wetter
Do, 22.08. 2:00 15.0° C leicht bewölkt
Mi, 21.08. 20:00 19.8° C fast wolkenlos
Mi, 21.08. 14:00 22.7° C leicht bewölkt
Mi, 21.08. 8:00 14.2° C fast wolkenlos
Mi, 21.08. 2:00 16.6° C bedeckt
Di, 20.08. 20:00 20.5° C wolkig
Di, 20.08. 14:00 23.6° C wolkig
Di, 20.08. 8:00 15.8° C leicht bewölkt
Ortszeit Temperatur Wetter
Do, 22.08. 6:00 12.9° C leicht bewölkt
Do, 22.08. 5:50 12.9° C wolkenlos
Do, 22.08. 5:40 13.0° C fast wolkenlos
Do, 22.08. 5:30 13.1° C leicht bewölkt
Do, 22.08. 5:20 13.1° C wolkig
Do, 22.08. 5:10 13.1° C wolkig
Do, 22.08. 5:00 13.3° C leicht bewölkt
Do, 22.08. 4:30 13.4° C leicht bewölkt
Do, 22.08. 4:00 13.7° C leicht bewölkt
Do, 22.08. 3:30 14.0° C leicht bewölkt
Do, 22.08. 3:00 14.4° C leicht bewölkt
Ortszeit Relative Feuchte Sichtweite
Do, 22.08. 2:00 62% 45 km
Mi, 21.08. 20:00 43% 40 km
Mi, 21.08. 14:00 39% 50 km
Mi, 21.08. 8:00 81% 35 km
Mi, 21.08. 2:00 68% 45 km
Di, 20.08. 20:00 55% 30 km
Di, 20.08. 14:00 38% 45 km
Di, 20.08. 8:00 63% 40 km
Ortszeit Relative Feuchte Sichtweite
Do, 22.08. 6:00 72% 35 km
Do, 22.08. 5:50 72% -
Do, 22.08. 5:40 71% -
Do, 22.08. 5:30 71% 40 km
Do, 22.08. 5:20 71% -
Do, 22.08. 5:10 70% -
Do, 22.08. 5:00 69% 40 km
Do, 22.08. 4:30 70% 45 km
Do, 22.08. 4:00 69% 45 km
Do, 22.08. 3:30 66% 45 km
Do, 22.08. 3:00 62% 45 km
Ortszeit Niederschlagsmenge Niederschlagsart
Do, 22.08. 2:00 0.0 l/m2 in 6 Std. -
Mi, 21.08. 20:00 0.0 l/m2 in 12 Std. -
Mi, 21.08. 14:00 0.0 l/m2 in 6 Std. -
Mi, 21.08. 8:00 0.1 l/m2 in 12 Std. -
Mi, 21.08. 2:00 0.1 l/m2 in 6 Std. Regen
Di, 20.08. 20:00 0.1 l/m2 in 12 Std. Regen
Di, 20.08. 14:00 0.0 l/m2 in 6 Std. -
Di, 20.08. 8:00 0.0 l/m2 in 12 Std. -
Ortszeit Niederschlagsmenge Niederschlagsart
Do, 22.08. 6:00 0.0 l/m2 in 1 Std. -
Do, 22.08. 5:50 keine Meldung -
Do, 22.08. 5:40 keine Meldung -
Do, 22.08. 5:30 0.0 l/m2 in 1 Std. -
Do, 22.08. 5:20 keine Meldung -
Do, 22.08. 5:10 keine Meldung -
Do, 22.08. 5:00 0.0 l/m2 in 1 Std. -
Do, 22.08. 4:30 0.0 l/m2 in 1 Std. -
Do, 22.08. 4:00 0.0 l/m2 in 1 Std. -
Do, 22.08. 3:30 0.0 l/m2 in 1 Std. -
Do, 22.08. 3:00 0.0 l/m2 in 1 Std. -
Ortszeit Stärke Spitze Richtung
km/h Bft. km/h Grad Sektor
Do, 22.08. 2:00 14 3 18 110° O
Mi, 21.08. 20:00 7 2 29 340° N
Mi, 21.08. 14:00 13 3 31 280° W
Mi, 21.08. 8:00 13 3 24 270° W
Mi, 21.08. 2:00 4 1 25 50° NO
Di, 20.08. 20:00 9 2 13 290° W
Di, 20.08. 14:00 6 1 13 280° W
Di, 20.08. 8:00 7 2 22 200° S
Ortszeit Stärke Spitze Richtung
km/h Bft. km/h Grad Sektor
Do, 22.08. 6:00 13 3 15 100° O
Do, 22.08. 5:50 13 3 - 100° O
Do, 22.08. 5:40 13 3 - 110° O
Do, 22.08. 5:30 13 3 15 120° SO
Do, 22.08. 5:20 13 3 - 120° SO
Do, 22.08. 5:10 13 3 - 110° O
Do, 22.08. 5:00 14 3 14 110° O
Do, 22.08. 4:30 14 3 14 120° SO
Do, 22.08. 4:00 15 3 17 120° SO
Do, 22.08. 3:30 13 3 15 110° O
Do, 22.08. 3:00 11 2 14 120° SO
Ortszeit Untergrenze Bedeckung Gattung
total tief tief mittel hoch
Do, 22.08. 2:00 7500 m 4/8 0/8 - - Ci
Mi, 21.08. 20:00 2100 m 2/8 1/8 Sc - Ci
Mi, 21.08. 14:00 1500 m 3/8 3/8 Cu - -
Mi, 21.08. 8:00 3000 m 1/8 1/8 - Ac -
Mi, 21.08. 2:00 2100 m 8/8 7/8 Sc - -
Di, 20.08. 20:00 1800 m 8/8 3/8 Sc Ns -
Di, 20.08. 14:00 2100 m 8/8 2/8 Cu As -
Di, 20.08. 8:00 2100 m 4/8 1/8 Sc Ac Ci
Ortszeit Bedeckungsgrad in Achtel und Wolkenuntergrenze
Do, 22.08. 6:00 4(8400m)
Do, 22.08. 5:50 keine Wolken
Do, 22.08. 5:40 1(9000m)
Do, 22.08. 5:30 5(8400m)
Do, 22.08. 5:20 7(9000m) 7(9000m)
Do, 22.08. 5:10 8(9000m) 8(9000m)
Do, 22.08. 5:00 5(8400m) 8(9000m)
Do, 22.08. 4:30 5(8400m) 7(9000m)
Do, 22.08. 4:00 7(8400m) 8(9000m)
Do, 22.08. 3:30 7(8400m)
Do, 22.08. 3:00 7(8400m) 8(9000m) 8(10500m)
Ortszeit Luftdruck NN (hPa) Tendenz (hPa in 3 Std.)
Do, 22.08. 2:00 1029 - 0,1
Mi, 21.08. 20:00 1028 + 0,4
Mi, 21.08. 14:00 1028 - 0,1
Mi, 21.08. 8:00 1027 + 1,9
Mi, 21.08. 2:00 1024 + 1,0
Di, 20.08. 20:00 1022 + 0,4
Di, 20.08. 14:00 1022 - 0,2
Di, 20.08. 8:00 1021 + 0,8
Ortszeit Luftdruck NN (hPa) Tendenz (hPa in 3 Std.)
Do, 22.08. 6:00 1028 - 0,3
Do, 22.08. 5:50 1028 keine Meldung
Do, 22.08. 5:40 1028 keine Meldung
Do, 22.08. 5:30 1028 - 0,5
Do, 22.08. 5:20 1028 keine Meldung
Do, 22.08. 5:10 1028 keine Meldung
Do, 22.08. 5:00 1028 - 0,4
Do, 22.08. 4:30 1028 - 0,4
Do, 22.08. 4:00 1028 - 0,4
Do, 22.08. 3:30 1029 - 0,2
Do, 22.08. 3:00 1029 - 0,1
Ortszeit Schneehöhe (cm)
Do, 22.08. 2:00 0
Mi, 21.08. 20:00 0
Mi, 21.08. 14:00 0
Mi, 21.08. 8:00 0
Mi, 21.08. 2:00 0
Di, 20.08. 20:00 0
Di, 20.08. 14:00 0
Di, 20.08. 8:00 0
Ortszeit Schneehöhe (cm)
Do, 22.08. 6:00 -
Do, 22.08. 5:50 -
Do, 22.08. 5:40 -
Do, 22.08. 5:30 -
Do, 22.08. 5:20 -
Do, 22.08. 5:10 -
Do, 22.08. 5:00 -
Do, 22.08. 4:30 -
Do, 22.08. 4:00 -
Do, 22.08. 3:30 -
Do, 22.08. 3:00 -
Link zu dieser Seite / Seite empfehlen

Das Wetter in ...